sensor_id;sensor_type;location;lat;lon;timestamp;temperature;humidity
15107;DHT22;7654;45.308;-75.096;2023-12-22T00:01:50;-10.40;99.90
15107;DHT22;7654;45.308;-75.096;2023-12-22T00:04:22;-10.50;99.90
15107;DHT22;7654;45.308;-75.096;2023-12-22T00:06:52;-10.60;99.90
15107;DHT22;7654;45.308;-75.096;2023-12-22T00:09:23;-10.60;99.90
15107;DHT22;7654;45.308;-75.096;2023-12-22T00:11:53;-10.60;99.90
15107;DHT22;7654;45.308;-75.096;2023-12-22T00:14:23;-10.40;99.90
15107;DHT22;7654;45.308;-75.096;2023-12-22T00:16:53;-10.10;99.90
15107;DHT22;7654;45.308;-75.096;2023-12-22T00:19:25;-10.10;99.90
15107;DHT22;7654;45.308;-75.096;2023-12-22T00:21:55;-10.20;99.90
15107;DHT22;7654;45.308;-75.096;2023-12-22T00:24:26;-10.40;99.90
15107;DHT22;7654;45.308;-75.096;2023-12-22T00:26:56;-10.50;99.90
15107;DHT22;7654;45.308;-75.096;2023-12-22T00:29:26;-10.60;99.90
15107;DHT22;7654;45.308;-75.096;2023-12-22T00:31:56;-10.80;99.90
15107;DHT22;7654;45.308;-75.096;2023-12-22T00:34:28;-10.80;99.90
15107;DHT22;7654;45.308;-75.096;2023-12-22T00:36:59;-10.90;99.90
15107;DHT22;7654;45.308;-75.096;2023-12-22T00:39:29;-10.90;99.90
15107;DHT22;7654;45.308;-75.096;2023-12-22T00:41:58;-11.00;99.90
15107;DHT22;7654;45.308;-75.096;2023-12-22T00:44:29;-10.90;99.90
15107;DHT22;7654;45.308;-75.096;2023-12-22T00:46:59;-10.90;99.90
15107;DHT22;7654;45.308;-75.096;2023-12-22T00:49:31;-10.90;99.90
15107;DHT22;7654;45.308;-75.096;2023-12-22T00:52:01;-11.00;99.90
15107;DHT22;7654;45.308;-75.096;2023-12-22T00:54:32;-11.00;99.90
15107;DHT22;7654;45.308;-75.096;2023-12-22T00:57:02;-11.00;99.90
15107;DHT22;7654;45.308;-75.096;2023-12-22T00:59:32;-11.10;99.90
15107;DHT22;7654;45.308;-75.096;2023-12-22T01:02:03;-11.10;99.90
15107;DHT22;7654;45.308;-75.096;2023-12-22T01:04:34;-11.00;99.90
15107;DHT22;7654;45.308;-75.096;2023-12-22T01:07:05;-11.00;99.90
15107;DHT22;7654;45.308;-75.096;2023-12-22T01:09:37;-10.90;99.90
15107;DHT22;7654;45.308;-75.096;2023-12-22T01:12:07;-10.80;99.90
15107;DHT22;7654;45.308;-75.096;2023-12-22T01:14:38;-10.70;99.90
15107;DHT22;7654;45.308;-75.096;2023-12-22T01:17:08;-10.60;99.90
15107;DHT22;7654;45.308;-75.096;2023-12-22T01:19:40;-10.70;99.90
15107;DHT22;7654;45.308;-75.096;2023-12-22T01:22:10;-10.70;99.90
15107;DHT22;7654;45.308;-75.096;2023-12-22T01:24:41;-10.70;99.90
15107;DHT22;7654;45.308;-75.096;2023-12-22T01:27:12;-10.70;99.90
15107;DHT22;7654;45.308;-75.096;2023-12-22T01:29:42;-10.70;99.90
15107;DHT22;7654;45.308;-75.096;2023-12-22T01:32:12;-10.80;99.90
15107;DHT22;7654;45.308;-75.096;2023-12-22T01:34:44;-10.80;99.90
15107;DHT22;7654;45.308;-75.096;2023-12-22T01:37:14;-10.90;99.90
15107;DHT22;7654;45.308;-75.096;2023-12-22T01:39:45;-10.90;99.90
15107;DHT22;7654;45.308;-75.096;2023-12-22T01:42:15;-11.00;99.90
15107;DHT22;7654;45.308;-75.096;2023-12-22T01:44:45;-11.10;99.90
15107;DHT22;7654;45.308;-75.096;2023-12-22T01:47:16;-11.00;99.90
15107;DHT22;7654;45.308;-75.096;2023-12-22T01:49:48;-11.10;99.90
15107;DHT22;7654;45.308;-75.096;2023-12-22T01:52:18;-11.10;99.90
15107;DHT22;7654;45.308;-75.096;2023-12-22T01:54:50;-11.00;99.90
15107;DHT22;7654;45.308;-75.096;2023-12-22T01:57:20;-11.00;99.90
15107;DHT22;7654;45.308;-75.096;2023-12-22T01:59:51;-10.70;99.90
15107;DHT22;7654;45.308;-75.096;2023-12-22T02:02:21;-10.20;99.90
15107;DHT22;7654;45.308;-75.096;2023-12-22T02:04:54;-9.90;99.90
15107;DHT22;7654;45.308;-75.096;2023-12-22T02:07:24;-9.70;99.90
15107;DHT22;7654;45.308;-75.096;2023-12-22T02:09:54;-9.50;99.90
15107;DHT22;7654;45.308;-75.096;2023-12-22T02:12:24;-9.40;99.90
15107;DHT22;7654;45.308;-75.096;2023-12-22T02:14:54;-9.40;99.90
15107;DHT22;7654;45.308;-75.096;2023-12-22T02:17:29;-9.20;99.90
15107;DHT22;7654;45.308;-75.096;2023-12-22T02:20:03;-9.20;99.90
15107;DHT22;7654;45.308;-75.096;2023-12-22T02:22:35;-9.10;99.90
15107;DHT22;7654;45.308;-75.096;2023-12-22T02:25:06;-9.10;99.90
15107;DHT22;7654;45.308;-75.096;2023-12-22T02:27:42;-9.20;99.90
15107;DHT22;7654;45.308;-75.096;2023-12-22T02:30:22;-9.30;99.90
15107;DHT22;7654;45.308;-75.096;2023-12-22T02:32:58;-9.50;99.90
15107;DHT22;7654;45.308;-75.096;2023-12-22T02:35:30;-9.70;99.90
15107;DHT22;7654;45.308;-75.096;2023-12-22T02:38:05;-10.00;99.90
15107;DHT22;7654;45.308;-75.096;2023-12-22T02:40:37;-10.10;99.90
15107;DHT22;7654;45.308;-75.096;2023-12-22T02:43:09;-10.20;99.90
15107;DHT22;7654;45.308;-75.096;2023-12-22T02:45:38;-10.40;99.90
15107;DHT22;7654;45.308;-75.096;2023-12-22T02:48:08;-10.50;99.90
15107;DHT22;7654;45.308;-75.096;2023-12-22T02:50:39;-10.50;99.90
15107;DHT22;7654;45.308;-75.096;2023-12-22T02:53:11;-10.50;99.90
15107;DHT22;7654;45.308;-75.096;2023-12-22T02:55:41;-10.60;99.90
15107;DHT22;7654;45.308;-75.096;2023-12-22T02:58:11;-10.80;99.90
15107;DHT22;7654;45.308;-75.096;2023-12-22T03:00:42;-10.90;99.90
15107;DHT22;7654;45.308;-75.096;2023-12-22T03:03:12;-11.00;99.90
15107;DHT22;7654;45.308;-75.096;2023-12-22T03:05:43;-11.00;99.90
15107;DHT22;7654;45.308;-75.096;2023-12-22T03:08:15;-11.00;99.90
15107;DHT22;7654;45.308;-75.096;2023-12-22T03:10:45;-11.00;99.90
15107;DHT22;7654;45.308;-75.096;2023-12-22T03:13:15;-11.00;99.90
15107;DHT22;7654;45.308;-75.096;2023-12-22T03:15:45;-11.00;99.90
15107;DHT22;7654;45.308;-75.096;2023-12-22T03:18:16;-11.00;99.90
15107;DHT22;7654;45.308;-75.096;2023-12-22T03:20:46;-11.00;99.90
15107;DHT22;7654;45.308;-75.096;2023-12-22T03:23:18;-11.00;99.90
15107;DHT22;7654;45.308;-75.096;2023-12-22T03:25:48;-10.90;99.90
15107;DHT22;7654;45.308;-75.096;2023-12-22T03:28:19;-10.80;99.90
15107;DHT22;7654;45.308;-75.096;2023-12-22T03:30:49;-10.80;99.90
15107;DHT22;7654;45.308;-75.096;2023-12-22T03:33:19;-10.90;99.90
15107;DHT22;7654;45.308;-75.096;2023-12-22T03:35:49;-11.00;99.90
15107;DHT22;7654;45.308;-75.096;2023-12-22T03:38:21;-11.10;99.90
15107;DHT22;7654;45.308;-75.096;2023-12-22T03:40:51;-11.20;99.90
15107;DHT22;7654;45.308;-75.096;2023-12-22T03:43:22;-11.20;99.90
15107;DHT22;7654;45.308;-75.096;2023-12-22T03:45:52;-11.00;99.90
15107;DHT22;7654;45.308;-75.096;2023-12-22T03:48:22;-10.80;99.90
15107;DHT22;7654;45.308;-75.096;2023-12-22T03:50:53;-10.70;99.90
15107;DHT22;7654;45.308;-75.096;2023-12-22T03:53:24;-10.70;99.90
15107;DHT22;7654;45.308;-75.096;2023-12-22T03:55:55;-10.60;99.90
15107;DHT22;7654;45.308;-75.096;2023-12-22T03:58:25;-10.70;99.90
15107;DHT22;7654;45.308;-75.096;2023-12-22T04:00:58;-10.80;99.90
15107;DHT22;7654;45.308;-75.096;2023-12-22T04:03:28;-10.90;99.90
15107;DHT22;7654;45.308;-75.096;2023-12-22T04:05:58;-10.90;99.90
15107;DHT22;7654;45.308;-75.096;2023-12-22T04:08:32;-10.90;99.90
15107;DHT22;7654;45.308;-75.096;2023-12-22T04:11:03;-10.80;99.90
15107;DHT22;7654;45.308;-75.096;2023-12-22T04:13:33;-10.70;99.90
15107;DHT22;7654;45.308;-75.096;2023-12-22T04:16:04;-10.70;99.90
15107;DHT22;7654;45.308;-75.096;2023-12-22T04:18:34;-10.70;99.90
15107;DHT22;7654;45.308;-75.096;2023-12-22T04:21:04;-10.70;99.90
15107;DHT22;7654;45.308;-75.096;2023-12-22T04:23:36;-10.50;99.90
15107;DHT22;7654;45.308;-75.096;2023-12-22T04:26:06;-10.60;99.90
15107;DHT22;7654;45.308;-75.096;2023-12-22T04:28:37;-10.60;99.90
15107;DHT22;7654;45.308;-75.096;2023-12-22T04:31:07;-10.60;99.90
15107;DHT22;7654;45.308;-75.096;2023-12-22T04:33:37;-10.70;99.90
15107;DHT22;7654;45.308;-75.096;2023-12-22T04:36:08;-10.60;99.90
15107;DHT22;7654;45.308;-75.096;2023-12-22T04:38:39;-10.50;99.90
15107;DHT22;7654;45.308;-75.096;2023-12-22T04:41:10;-10.30;99.90
15107;DHT22;7654;45.308;-75.096;2023-12-22T04:43:40;-10.30;99.90
15107;DHT22;7654;45.308;-75.096;2023-12-22T04:46:10;-10.30;99.90
15107;DHT22;7654;45.308;-75.096;2023-12-22T04:48:40;-10.30;99.90
15107;DHT22;7654;45.308;-75.096;2023-12-22T04:51:11;-10.40;99.90
15107;DHT22;7654;45.308;-75.096;2023-12-22T04:53:42;-10.60;99.90
15107;DHT22;7654;45.308;-75.096;2023-12-22T04:56:13;-10.70;99.90
15107;DHT22;7654;45.308;-75.096;2023-12-22T04:58:43;-10.80;99.90
15107;DHT22;7654;45.308;-75.096;2023-12-22T05:01:13;-11.00;99.90
15107;DHT22;7654;45.308;-75.096;2023-12-22T05:03:44;-10.90;99.90
15107;DHT22;7654;45.308;-75.096;2023-12-22T05:06:14;-10.90;99.90
15107;DHT22;7654;45.308;-75.096;2023-12-22T05:08:46;-10.90;99.90
15107;DHT22;7654;45.308;-75.096;2023-12-22T05:11:16;-11.00;99.90
15107;DHT22;7654;45.308;-75.096;2023-12-22T05:13:47;-11.10;99.90
15107;DHT22;7654;45.308;-75.096;2023-12-22T05:16:17;-11.10;99.90
15107;DHT22;7654;45.308;-75.096;2023-12-22T05:18:47;-11.20;99.90
15107;DHT22;7654;45.308;-75.096;2023-12-22T05:21:18;-11.30;99.90
15107;DHT22;7654;45.308;-75.096;2023-12-22T05:23:51;-11.50;99.90
15107;DHT22;7654;45.308;-75.096;2023-12-22T05:26:21;-11.60;99.90
15107;DHT22;7654;45.308;-75.096;2023-12-22T05:28:52;-11.70;99.90
15107;DHT22;7654;45.308;-75.096;2023-12-22T05:31:22;-11.70;99.90
15107;DHT22;7654;45.308;-75.096;2023-12-22T05:33:52;-11.70;99.90
15107;DHT22;7654;45.308;-75.096;2023-12-22T05:36:23;-11.50;99.90
15107;DHT22;7654;45.308;-75.096;2023-12-22T05:38:55;-11.50;99.90
15107;DHT22;7654;45.308;-75.096;2023-12-22T05:41:26;-11.40;99.90
15107;DHT22;7654;45.308;-75.096;2023-12-22T05:43:56;-11.40;99.90
15107;DHT22;7654;45.308;-75.096;2023-12-22T05:46:27;-11.50;99.90
15107;DHT22;7654;45.308;-75.096;2023-12-22T05:48:57;-11.60;99.90
15107;DHT22;7654;45.308;-75.096;2023-12-22T05:51:28;-11.60;99.90
15107;DHT22;7654;45.308;-75.096;2023-12-22T05:54:00;-11.60;99.90
15107;DHT22;7654;45.308;-75.096;2023-12-22T05:56:30;-11.60;99.90
15107;DHT22;7654;45.308;-75.096;2023-12-22T05:59:00;-11.60;99.90
15107;DHT22;7654;45.308;-75.096;2023-12-22T06:01:31;-11.60;99.90
15107;DHT22;7654;45.308;-75.096;2023-12-22T06:04:01;-11.70;99.90
15107;DHT22;7654;45.308;-75.096;2023-12-22T06:06:31;-11.70;99.90
15107;DHT22;7654;45.308;-75.096;2023-12-22T06:09:03;-11.70;99.90
15107;DHT22;7654;45.308;-75.096;2023-12-22T06:11:33;-11.60;99.90
15107;DHT22;7654;45.308;-75.096;2023-12-22T06:14:04;-11.60;99.90
15107;DHT22;7654;45.308;-75.096;2023-12-22T06:16:34;-11.50;99.90
15107;DHT22;7654;45.308;-75.096;2023-12-22T06:19:04;-11.40;99.90
15107;DHT22;7654;45.308;-75.096;2023-12-22T06:21:37;-11.40;99.90
15107;DHT22;7654;45.308;-75.096;2023-12-22T06:24:09;-11.40;99.90
15107;DHT22;7654;45.308;-75.096;2023-12-22T06:26:40;-11.40;99.90
15107;DHT22;7654;45.308;-75.096;2023-12-22T06:29:10;-11.50;99.90
15107;DHT22;7654;45.308;-75.096;2023-12-22T06:31:40;-11.50;99.90
15107;DHT22;7654;45.308;-75.096;2023-12-22T06:34:11;-11.50;99.90
15107;DHT22;7654;45.308;-75.096;2023-12-22T06:36:41;-11.50;99.90
15107;DHT22;7654;45.308;-75.096;2023-12-22T06:39:13;-11.50;99.90
15107;DHT22;7654;45.308;-75.096;2023-12-22T06:41:44;-11.50;99.90
15107;DHT22;7654;45.308;-75.096;2023-12-22T06:44:15;-11.60;99.90
15107;DHT22;7654;45.308;-75.096;2023-12-22T06:46:45;-11.60;99.90
15107;DHT22;7654;45.308;-75.096;2023-12-22T06:49:15;-11.60;99.90
15107;DHT22;7654;45.308;-75.096;2023-12-22T06:51:46;-11.60;99.90
15107;DHT22;7654;45.308;-75.096;2023-12-22T06:54:17;-11.60;99.90
15107;DHT22;7654;45.308;-75.096;2023-12-22T06:56:48;-11.70;99.90
15107;DHT22;7654;45.308;-75.096;2023-12-22T06:59:18;-11.70;99.90
15107;DHT22;7654;45.308;-75.096;2023-12-22T07:01:50;-11.70;99.90
15107;DHT22;7654;45.308;-75.096;2023-12-22T07:05:01;-11.80;99.90
15107;DHT22;7654;45.308;-75.096;2023-12-22T07:07:35;-11.80;99.90
15107;DHT22;7654;45.308;-75.096;2023-12-22T07:10:07;-11.80;99.90
15107;DHT22;7654;45.308;-75.096;2023-12-22T07:12:39;-11.70;99.90
15107;DHT22;7654;45.308;-75.096;2023-12-22T07:15:10;-11.70;99.90
15107;DHT22;7654;45.308;-75.096;2023-12-22T07:17:40;-11.80;99.90
15107;DHT22;7654;45.308;-75.096;2023-12-22T07:20:11;-11.90;99.90
15107;DHT22;7654;45.308;-75.096;2023-12-22T07:22:43;-11.90;99.90
15107;DHT22;7654;45.308;-75.096;2023-12-22T07:25:15;-11.80;99.90
15107;DHT22;7654;45.308;-75.096;2023-12-22T07:27:47;-11.80;99.90
15107;DHT22;7654;45.308;-75.096;2023-12-22T07:30:18;-11.90;99.90
15107;DHT22;7654;45.308;-75.096;2023-12-22T07:32:48;-11.80;99.90
15107;DHT22;7654;45.308;-75.096;2023-12-22T07:35:20;-11.80;99.90
15107;DHT22;7654;45.308;-75.096;2023-12-22T07:37:51;-11.80;99.90
15107;DHT22;7654;45.308;-75.096;2023-12-22T07:40:27;-11.80;99.90
15107;DHT22;7654;45.308;-75.096;2023-12-22T07:43:16;-11.80;99.90
15107;DHT22;7654;45.308;-75.096;2023-12-22T07:45:46;-11.80;99.90
15107;DHT22;7654;45.308;-75.096;2023-12-22T07:48:19;-11.80;99.90
15107;DHT22;7654;45.308;-75.096;2023-12-22T07:50:50;-11.90;99.90
15107;DHT22;7654;45.308;-75.096;2023-12-22T07:53:22;-11.90;99.90
15107;DHT22;7654;45.308;-75.096;2023-12-22T07:55:53;-12.00;99.90
15107;DHT22;7654;45.308;-75.096;2023-12-22T07:58:24;-12.00;99.90
15107;DHT22;7654;45.308;-75.096;2023-12-22T08:00:55;-12.00;99.90
15107;DHT22;7654;45.308;-75.096;2023-12-22T08:03:26;-12.00;99.90
15107;DHT22;7654;45.308;-75.096;2023-12-22T08:05:56;-11.90;99.90
15107;DHT22;7654;45.308;-75.096;2023-12-22T08:08:27;-11.90;99.90
15107;DHT22;7654;45.308;-75.096;2023-12-22T08:10:57;-11.90;99.90
15107;DHT22;7654;45.308;-75.096;2023-12-22T08:13:29;-11.90;99.90
15107;DHT22;7654;45.308;-75.096;2023-12-22T08:15:59;-12.00;99.90
15107;DHT22;7654;45.308;-75.096;2023-12-22T08:18:29;-11.90;99.90
15107;DHT22;7654;45.308;-75.096;2023-12-22T08:21:01;-12.00;99.90
15107;DHT22;7654;45.308;-75.096;2023-12-22T08:23:44;-12.00;99.90
15107;DHT22;7654;45.308;-75.096;2023-12-22T08:26:22;-12.00;99.90
15107;DHT22;7654;45.308;-75.096;2023-12-22T08:28:53;-11.90;99.90
15107;DHT22;7654;45.308;-75.096;2023-12-22T08:31:24;-11.90;99.90
15107;DHT22;7654;45.308;-75.096;2023-12-22T08:33:54;-11.90;99.90
15107;DHT22;7654;45.308;-75.096;2023-12-22T08:36:24;-11.90;99.90
15107;DHT22;7654;45.308;-75.096;2023-12-22T08:38:54;-11.80;99.90
15107;DHT22;7654;45.308;-75.096;2023-12-22T08:41:26;-11.80;99.90
15107;DHT22;7654;45.308;-75.096;2023-12-22T08:43:58;-11.80;99.90
15107;DHT22;7654;45.308;-75.096;2023-12-22T08:46:29;-11.90;99.90
15107;DHT22;7654;45.308;-75.096;2023-12-22T08:48:59;-11.90;99.90
15107;DHT22;7654;45.308;-75.096;2023-12-22T08:51:29;-11.90;99.90
15107;DHT22;7654;45.308;-75.096;2023-12-22T08:53:59;-11.90;99.90
15107;DHT22;7654;45.308;-75.096;2023-12-22T08:56:29;-11.90;99.90
15107;DHT22;7654;45.308;-75.096;2023-12-22T08:59:01;-12.00;99.90
15107;DHT22;7654;45.308;-75.096;2023-12-22T09:01:31;-12.00;99.90
15107;DHT22;7654;45.308;-75.096;2023-12-22T09:04:02;-12.00;99.90
15107;DHT22;7654;45.308;-75.096;2023-12-22T09:06:33;-12.00;99.90
15107;DHT22;7654;45.308;-75.096;2023-12-22T09:09:03;-12.00;99.90
15107;DHT22;7654;45.308;-75.096;2023-12-22T09:11:34;-12.00;99.90
15107;DHT22;7654;45.308;-75.096;2023-12-22T09:14:07;-12.10;99.90
15107;DHT22;7654;45.308;-75.096;2023-12-22T09:16:38;-12.00;99.90
15107;DHT22;7654;45.308;-75.096;2023-12-22T09:19:08;-12.00;99.90
15107;DHT22;7654;45.308;-75.096;2023-12-22T09:21:38;-12.00;99.90
15107;DHT22;7654;45.308;-75.096;2023-12-22T09:24:08;-12.00;99.90
15107;DHT22;7654;45.308;-75.096;2023-12-22T09:26:40;-12.10;99.90
15107;DHT22;7654;45.308;-75.096;2023-12-22T09:29:12;-12.10;99.90
15107;DHT22;7654;45.308;-75.096;2023-12-22T09:31:42;-12.10;99.90
15107;DHT22;7654;45.308;-75.096;2023-12-22T09:34:13;-12.10;99.90
15107;DHT22;7654;45.308;-75.096;2023-12-22T09:36:43;-12.10;99.90
15107;DHT22;7654;45.308;-75.096;2023-12-22T09:39:13;-12.10;99.90
15107;DHT22;7654;45.308;-75.096;2023-12-22T09:41:49;-12.10;99.90
15107;DHT22;7654;45.308;-75.096;2023-12-22T09:44:21;-12.20;99.90
15107;DHT22;7654;45.308;-75.096;2023-12-22T09:46:52;-12.30;99.90
15107;DHT22;7654;45.308;-75.096;2023-12-22T09:49:23;-12.30;99.90
15107;DHT22;7654;45.308;-75.096;2023-12-22T09:51:54;-12.30;99.90
15107;DHT22;7654;45.308;-75.096;2023-12-22T09:54:26;-12.30;99.90
15107;DHT22;7654;45.308;-75.096;2023-12-22T09:56:56;-12.30;99.90
15107;DHT22;7654;45.308;-75.096;2023-12-22T09:59:36;-12.30;99.90
15107;DHT22;7654;45.308;-75.096;2023-12-22T10:02:07;-12.40;99.90
15107;DHT22;7654;45.308;-75.096;2023-12-22T10:04:38;-12.40;99.90
15107;DHT22;7654;45.308;-75.096;2023-12-22T10:07:08;-12.40;99.90
15107;DHT22;7654;45.308;-75.096;2023-12-22T10:09:39;-12.50;99.90
15107;DHT22;7654;45.308;-75.096;2023-12-22T10:12:11;-12.60;99.90
15107;DHT22;7654;45.308;-75.096;2023-12-22T10:14:43;-12.60;99.90
15107;DHT22;7654;45.308;-75.096;2023-12-22T10:17:15;-12.60;99.90
15107;DHT22;7654;45.308;-75.096;2023-12-22T10:19:45;-12.60;99.90
15107;DHT22;7654;45.308;-75.096;2023-12-22T10:22:15;-12.60;99.90
15107;DHT22;7654;45.308;-75.096;2023-12-22T10:24:46;-12.60;99.90
15107;DHT22;7654;45.308;-75.096;2023-12-22T10:27:19;-12.50;99.90
15107;DHT22;7654;45.308;-75.096;2023-12-22T10:29:55;-12.60;99.90
15107;DHT22;7654;45.308;-75.096;2023-12-22T10:32:26;-12.50;99.90
15107;DHT22;7654;45.308;-75.096;2023-12-22T10:34:56;-12.50;99.90
15107;DHT22;7654;45.308;-75.096;2023-12-22T10:37:27;-12.50;99.90
15107;DHT22;7654;45.308;-75.096;2023-12-22T10:39:57;-12.50;99.90
15107;DHT22;7654;45.308;-75.096;2023-12-22T10:42:28;-12.40;99.90
15107;DHT22;7654;45.308;-75.096;2023-12-22T10:45:00;-12.40;99.90
15107;DHT22;7654;45.308;-75.096;2023-12-22T10:47:30;-12.40;99.90
15107;DHT22;7654;45.308;-75.096;2023-12-22T10:50:02;-12.50;99.90
15107;DHT22;7654;45.308;-75.096;2023-12-22T10:52:33;-12.50;99.90
15107;DHT22;7654;45.308;-75.096;2023-12-22T10:55:04;-12.50;99.90
15107;DHT22;7654;45.308;-75.096;2023-12-22T10:57:34;-12.60;99.90
15107;DHT22;7654;45.308;-75.096;2023-12-22T11:00:09;-12.50;99.90
15107;DHT22;7654;45.308;-75.096;2023-12-22T11:02:42;-12.50;99.90
15107;DHT22;7654;45.308;-75.096;2023-12-22T11:05:15;-12.50;99.90
15107;DHT22;7654;45.308;-75.096;2023-12-22T11:07:49;-12.50;99.90
15107;DHT22;7654;45.308;-75.096;2023-12-22T11:10:21;-12.50;99.90
15107;DHT22;7654;45.308;-75.096;2023-12-22T11:12:52;-12.60;99.90
15107;DHT22;7654;45.308;-75.096;2023-12-22T11:15:24;-12.50;99.90
15107;DHT22;7654;45.308;-75.096;2023-12-22T11:17:56;-12.60;99.90
15107;DHT22;7654;45.308;-75.096;2023-12-22T11:20:28;-12.60;99.90
15107;DHT22;7654;45.308;-75.096;2023-12-22T11:23:01;-12.60;99.90
15107;DHT22;7654;45.308;-75.096;2023-12-22T11:25:33;-12.50;99.90
15107;DHT22;7654;45.308;-75.096;2023-12-22T11:28:06;-12.50;99.90
15107;DHT22;7654;45.308;-75.096;2023-12-22T11:30:38;-12.60;99.90
15107;DHT22;7654;45.308;-75.096;2023-12-22T11:33:09;-12.50;99.90
15107;DHT22;7654;45.308;-75.096;2023-12-22T11:35:41;-12.50;99.90
15107;DHT22;7654;45.308;-75.096;2023-12-22T11:38:12;-12.60;99.90
15107;DHT22;7654;45.308;-75.096;2023-12-22T11:40:43;-12.70;99.90
15107;DHT22;7654;45.308;-75.096;2023-12-22T11:43:13;-12.70;99.90
15107;DHT22;7654;45.308;-75.096;2023-12-22T11:45:48;-12.70;99.90
15107;DHT22;7654;45.308;-75.096;2023-12-22T11:48:18;-12.80;99.90
15107;DHT22;7654;45.308;-75.096;2023-12-22T11:50:49;-12.80;99.90
15107;DHT22;7654;45.308;-75.096;2023-12-22T11:53:24;-12.80;99.90
15107;DHT22;7654;45.308;-75.096;2023-12-22T11:56:00;-12.90;99.90
15107;DHT22;7654;45.308;-75.096;2023-12-22T11:58:37;-12.90;99.90
15107;DHT22;7654;45.308;-75.096;2023-12-22T12:01:10;-13.00;99.90
15107;DHT22;7654;45.308;-75.096;2023-12-22T12:03:51;-13.00;99.90
15107;DHT22;7654;45.308;-75.096;2023-12-22T12:06:32;-13.00;99.90
15107;DHT22;7654;45.308;-75.096;2023-12-22T12:09:06;-13.00;99.90
15107;DHT22;7654;45.308;-75.096;2023-12-22T12:12:11;-13.00;99.90
15107;DHT22;7654;45.308;-75.096;2023-12-22T12:14:43;-13.00;99.90
15107;DHT22;7654;45.308;-75.096;2023-12-22T12:17:16;-13.00;99.90
15107;DHT22;7654;45.308;-75.096;2023-12-22T12:19:48;-12.90;99.90
15107;DHT22;7654;45.308;-75.096;2023-12-22T12:22:19;-12.90;99.90
15107;DHT22;7654;45.308;-75.096;2023-12-22T12:24:54;-12.80;99.90
15107;DHT22;7654;45.308;-75.096;2023-12-22T12:27:25;-12.80;99.90
15107;DHT22;7654;45.308;-75.096;2023-12-22T12:29:55;-12.80;99.90
15107;DHT22;7654;45.308;-75.096;2023-12-22T12:32:33;-12.70;99.90
15107;DHT22;7654;45.308;-75.096;2023-12-22T12:35:04;-12.70;99.90
15107;DHT22;7654;45.308;-75.096;2023-12-22T12:37:35;-12.70;99.90
15107;DHT22;7654;45.308;-75.096;2023-12-22T12:40:09;-12.70;99.90
15107;DHT22;7654;45.308;-75.096;2023-12-22T12:42:41;-12.70;99.90
15107;DHT22;7654;45.308;-75.096;2023-12-22T12:45:11;-12.50;99.90
15107;DHT22;7654;45.308;-75.096;2023-12-22T12:47:44;-12.50;99.90
15107;DHT22;7654;45.308;-75.096;2023-12-22T12:50:21;-12.40;99.90
15107;DHT22;7654;45.308;-75.096;2023-12-22T12:52:52;-12.40;99.90
15107;DHT22;7654;45.308;-75.096;2023-12-22T12:55:24;-12.40;99.90
15107;DHT22;7654;45.308;-75.096;2023-12-22T12:57:56;-12.40;99.90
15107;DHT22;7654;45.308;-75.096;2023-12-22T13:00:27;-12.30;99.90
15107;DHT22;7654;45.308;-75.096;2023-12-22T13:03:00;-12.30;99.90
15107;DHT22;7654;45.308;-75.096;2023-12-22T13:05:33;-12.10;99.90
15107;DHT22;7654;45.308;-75.096;2023-12-22T13:08:08;-12.00;99.90
15107;DHT22;7654;45.308;-75.096;2023-12-22T13:10:39;-12.10;99.90
15107;DHT22;7654;45.308;-75.096;2023-12-22T13:13:09;-12.00;99.90
15107;DHT22;7654;45.308;-75.096;2023-12-22T13:15:41;-11.90;99.90
15107;DHT22;7654;45.308;-75.096;2023-12-22T13:18:13;-11.90;99.90
15107;DHT22;7654;45.308;-75.096;2023-12-22T13:20:43;-11.90;99.90
15107;DHT22;7654;45.308;-75.096;2023-12-22T13:23:17;-11.70;99.90
15107;DHT22;7654;45.308;-75.096;2023-12-22T13:25:47;-11.70;99.90
15107;DHT22;7654;45.308;-75.096;2023-12-22T13:28:26;-11.60;99.90
15107;DHT22;7654;45.308;-75.096;2023-12-22T13:30:56;-11.60;99.90
15107;DHT22;7654;45.308;-75.096;2023-12-22T13:33:34;-11.50;99.90
15107;DHT22;7654;45.308;-75.096;2023-12-22T13:36:05;-11.40;99.90
15107;DHT22;7654;45.308;-75.096;2023-12-22T13:38:35;-11.40;99.90
15107;DHT22;7654;45.308;-75.096;2023-12-22T13:41:08;-11.30;99.90
15107;DHT22;7654;45.308;-75.096;2023-12-22T13:43:38;-11.20;99.90
15107;DHT22;7654;45.308;-75.096;2023-12-22T13:46:09;-11.20;99.90
15107;DHT22;7654;45.308;-75.096;2023-12-22T13:48:41;-11.10;99.90
15107;DHT22;7654;45.308;-75.096;2023-12-22T13:51:11;-11.00;99.90
15107;DHT22;7654;45.308;-75.096;2023-12-22T13:53:48;-11.00;99.90
15107;DHT22;7654;45.308;-75.096;2023-12-22T13:56:18;-10.80;99.90
15107;DHT22;7654;45.308;-75.096;2023-12-22T13:58:48;-10.70;99.90
15107;DHT22;7654;45.308;-75.096;2023-12-22T14:01:19;-10.60;99.90
15107;DHT22;7654;45.308;-75.096;2023-12-22T14:03:51;-10.60;99.90
15107;DHT22;7654;45.308;-75.096;2023-12-22T14:06:21;-10.50;99.90
15107;DHT22;7654;45.308;-75.096;2023-12-22T14:08:51;-10.40;99.90
15107;DHT22;7654;45.308;-75.096;2023-12-22T14:11:22;-10.40;99.90
15107;DHT22;7654;45.308;-75.096;2023-12-22T14:13:52;-10.30;99.90
15107;DHT22;7654;45.308;-75.096;2023-12-22T14:16:22;-10.30;99.90
15107;DHT22;7654;45.308;-75.096;2023-12-22T14:18:54;-10.10;99.90
15107;DHT22;7654;45.308;-75.096;2023-12-22T14:21:24;-9.90;99.90
15107;DHT22;7654;45.308;-75.096;2023-12-22T14:23:55;-9.80;99.90
15107;DHT22;7654;45.308;-75.096;2023-12-22T14:26:25;-9.80;99.90
15107;DHT22;7654;45.308;-75.096;2023-12-22T14:28:55;-9.70;99.90
15107;DHT22;7654;45.308;-75.096;2023-12-22T14:31:25;-9.50;99.90
15107;DHT22;7654;45.308;-75.096;2023-12-22T14:33:57;-9.40;99.90
15107;DHT22;7654;45.308;-75.096;2023-12-22T14:36:27;-9.40;99.90
15107;DHT22;7654;45.308;-75.096;2023-12-22T14:38:57;-9.20;99.90
15107;DHT22;7654;45.308;-75.096;2023-12-22T14:41:27;-9.20;99.90
15107;DHT22;7654;45.308;-75.096;2023-12-22T14:43:58;-9.10;99.90
15107;DHT22;7654;45.308;-75.096;2023-12-22T14:46:28;-9.10;99.90
15107;DHT22;7654;45.308;-75.096;2023-12-22T14:49:00;-9.10;99.90
15107;DHT22;7654;45.308;-75.096;2023-12-22T14:51:35;-9.00;99.90
15107;DHT22;7654;45.308;-75.096;2023-12-22T14:54:06;-9.00;99.90
15107;DHT22;7654;45.308;-75.096;2023-12-22T14:56:39;-8.90;99.90
15107;DHT22;7654;45.308;-75.096;2023-12-22T14:59:10;-8.90;99.90
15107;DHT22;7654;45.308;-75.096;2023-12-22T15:01:40;-8.80;99.90
15107;DHT22;7654;45.308;-75.096;2023-12-22T15:04:14;-8.70;99.90
15107;DHT22;7654;45.308;-75.096;2023-12-22T15:06:46;-8.70;99.90
15107;DHT22;7654;45.308;-75.096;2023-12-22T15:09:27;-8.70;99.90
15107;DHT22;7654;45.308;-75.096;2023-12-22T15:11:57;-8.60;99.90
15107;DHT22;7654;45.308;-75.096;2023-12-22T15:14:27;-8.60;99.90
15107;DHT22;7654;45.308;-75.096;2023-12-22T15:16:58;-8.50;99.90
15107;DHT22;7654;45.308;-75.096;2023-12-22T15:19:29;-8.40;99.90
15107;DHT22;7654;45.308;-75.096;2023-12-22T15:22:00;-8.40;99.90
15107;DHT22;7654;45.308;-75.096;2023-12-22T15:24:33;-8.30;99.90
15107;DHT22;7654;45.308;-75.096;2023-12-22T15:27:05;-8.30;99.90
15107;DHT22;7654;45.308;-75.096;2023-12-22T15:29:35;-8.20;99.90